Kings Canyon Natl Park, California
Current Conditions -  °F | °C
As of 12:56 AM on Thursday 23 Oct 2014 (Local Time) from KBIH Reporting Station
Clear Clear  
Wind Chill: 47°   Ceiling: Unl
Heat Index: 47°   Visibility: 10mi
Dew Point: 23°   Wind: 3mph
Humidity: 39%   Direction: 20°NNE
Pressure: 30.11"   Gusts: NA
Location:  36.99°N, 118.85°W
Report Text: KBIH 230756Z AUTO 02003KT 10SM CLR 08/M05 A3011 RMK AO2 SLP164 T00831050 402610017
Loading
Personal Weather Stations






























Interactive Weather Map
Tropical Storm Tracking
New forecast layout! Learn more

10-Day Weather Forecast

Advertisements
Track Severe Weather on mobile